createdAt,value
2018-12-11T00:01:41.257Z,17.57
2018-12-11T00:04:09.868Z,23.03
2018-12-11T00:06:48.273Z,18.57
2018-12-11T00:09:17.134Z,24.30
2018-12-11T00:11:45.818Z,36.23
2018-12-11T00:14:14.362Z,20.87
2018-12-11T00:16:43.533Z,21.17
2018-12-11T00:19:12.374Z,23.00
2018-12-11T00:21:40.996Z,16.93
2018-12-11T00:24:09.887Z,25.67
2018-12-11T00:26:38.823Z,19.00
2018-12-11T00:29:07.806Z,28.83
2018-12-11T00:31:36.824Z,24.50
2018-12-11T00:34:05.645Z,24.10
2018-12-11T00:36:34.199Z,15.67
2018-12-11T00:39:05.495Z,22.47
2018-12-11T00:41:34.485Z,21.30
2018-12-11T00:44:03.498Z,24.90
2018-12-11T00:46:32.154Z,14.93
2018-12-11T00:49:01.356Z,21.10
2018-12-11T00:51:30.720Z,20.67
2018-12-11T00:53:59.315Z,20.77
2018-12-11T00:56:28.100Z,22.00
2018-12-11T00:58:56.885Z,23.50
2018-12-11T01:01:25.505Z,24.30
2018-12-11T01:03:54.300Z,24.50
2018-12-11T01:06:25.865Z,19.63
2018-12-11T01:08:54.907Z,13.40
2018-12-11T01:11:23.509Z,19.97
2018-12-11T01:13:52.099Z,18.30
2018-12-11T01:16:20.778Z,16.97
2018-12-11T01:18:49.557Z,18.47
2018-12-11T01:21:18.232Z,18.67
2018-12-11T01:23:47.068Z,22.07
2018-12-11T01:26:15.895Z,23.47
2018-12-11T01:28:44.869Z,16.03
2018-12-11T01:31:13.608Z,23.77
2018-12-11T01:33:42.373Z,16.57
2018-12-11T01:36:11.102Z,13.33
2018-12-11T01:38:39.740Z,22.20
2018-12-11T01:41:08.511Z,18.93
2018-12-11T01:43:37.097Z,15.83
2018-12-11T01:46:05.737Z,18.67
2018-12-11T01:48:34.532Z,16.93
2018-12-11T01:51:03.191Z,22.00
2018-12-11T01:53:31.905Z,14.93
2018-12-11T01:56:00.601Z,17.07
2018-12-11T01:58:29.263Z,12.87
2018-12-11T02:00:58.064Z,16.03
2018-12-11T02:03:26.709Z,25.87
2018-12-11T02:05:55.261Z,24.77
2018-12-11T02:08:24.052Z,20.70
2018-12-11T02:10:52.699Z,22.40
2018-12-11T02:13:21.265Z,26.73
2018-12-11T02:15:49.855Z,29.40
2018-12-11T02:18:18.453Z,15.47
2018-12-11T02:20:47.024Z,15.33
2018-12-11T02:23:15.798Z,13.03
2018-12-11T02:25:44.418Z,16.63
2018-12-11T02:28:13.160Z,19.97
2018-12-11T02:30:41.832Z,19.47
2018-12-11T02:33:10.644Z,18.30
2018-12-11T02:35:39.628Z,12.70
2018-12-11T02:38:08.311Z,15.10
2018-12-11T02:40:37.169Z,20.37
2018-12-11T02:43:06.043Z,15.50
2018-12-11T02:45:34.940Z,22.37
2018-12-11T02:48:03.614Z,18.67
2018-12-11T02:50:32.893Z,17.80
2018-12-11T02:53:01.458Z,17.07
2018-12-11T02:55:30.008Z,22.70
2018-12-11T02:57:58.592Z,17.20
2018-12-11T03:00:27.412Z,11.10
2018-12-11T03:02:55.967Z,20.50
2018-12-11T03:05:24.657Z,21.20
2018-12-11T03:07:53.160Z,15.63
2018-12-11T03:10:21.728Z,20.87
2018-12-11T03:12:50.473Z,12.47
2018-12-11T03:15:19.190Z,10.27
2018-12-11T03:17:48.042Z,12.30
2018-12-11T03:20:16.817Z,11.90
2018-12-11T03:22:45.504Z,14.90
2018-12-11T03:25:14.399Z,18.87
2018-12-11T03:27:42.973Z,18.10
2018-12-11T03:30:11.698Z,19.73
2018-12-11T03:32:40.262Z,10.43
2018-12-11T03:35:09.078Z,15.27
2018-12-11T03:37:37.823Z,17.27
2018-12-11T03:40:06.804Z,17.90
2018-12-11T03:42:35.611Z,22.73
2018-12-11T03:45:04.897Z,12.17
2018-12-11T03:47:33.529Z,18.23
2018-12-11T03:50:02.248Z,15.50
2018-12-11T03:52:30.918Z,15.73
2018-12-11T03:54:59.561Z,21.60
2018-12-11T03:57:28.223Z,18.90
2018-12-11T03:59:56.950Z,12.13
2018-12-11T04:02:25.537Z,21.10
2018-12-11T04:04:54.089Z,15.37
2018-12-11T04:07:22.886Z,15.00
2018-12-11T04:09:51.494Z,16.37
2018-12-11T04:12:20.369Z,16.30
2018-12-11T04:14:49.405Z,18.77
2018-12-11T04:17:18.371Z,9.47
2018-12-11T04:19:48.788Z,10.77
2018-12-11T04:22:17.373Z,11.83
2018-12-11T04:24:46.161Z,10.20
2018-12-11T04:27:15.480Z,15.23
2018-12-11T04:29:44.262Z,14.43
2018-12-11T04:32:12.920Z,12.13
2018-12-11T04:34:41.616Z,11.60
2018-12-11T04:37:10.197Z,12.97
2018-12-11T04:39:38.903Z,11.53
2018-12-11T04:42:07.640Z,10.60
2018-12-11T04:44:36.334Z,13.43
2018-12-11T04:47:05.159Z,15.23
2018-12-11T04:49:33.978Z,14.87
2018-12-11T04:52:02.932Z,22.77
2018-12-11T04:54:31.484Z,16.20
2018-12-11T04:57:00.033Z,19.70
2018-12-11T04:59:28.671Z,13.80
2018-12-11T05:01:57.213Z,16.37
2018-12-11T05:04:25.906Z,11.70
2018-12-11T05:06:54.581Z,15.87
2018-12-11T05:09:23.306Z,21.60
2018-12-11T05:11:51.990Z,14.87
2018-12-11T05:14:20.761Z,17.23
2018-12-11T05:16:49.305Z,8.23
2018-12-11T05:19:17.825Z,12.83
2018-12-11T05:21:46.654Z,14.00
2018-12-11T05:24:15.265Z,11.27
2018-12-11T05:26:43.837Z,7.83
2018-12-11T05:29:12.525Z,13.67
2018-12-11T05:31:41.035Z,14.67
2018-12-11T05:34:09.613Z,11.97
2018-12-11T05:36:38.361Z,14.47
2018-12-11T05:39:07.678Z,18.30
2018-12-11T05:41:36.266Z,18.20
2018-12-11T05:44:05.088Z,21.67
2018-12-11T05:46:33.879Z,15.00
2018-12-11T05:49:02.622Z,13.97
2018-12-11T05:51:31.194Z,12.57
2018-12-11T05:53:59.847Z,14.20
2018-12-11T05:56:28.360Z,12.27
2018-12-11T05:58:57.023Z,11.23
2018-12-11T06:01:25.739Z,13.07
2018-12-11T06:03:54.300Z,15.50
2018-12-11T06:06:23.056Z,12.40
2018-12-11T06:08:51.607Z,11.23
2018-12-11T06:11:20.402Z,12.30
2018-12-11T06:13:48.989Z,11.07
2018-12-11T06:16:18.089Z,16.60
2018-12-11T06:18:47.008Z,8.07
2018-12-11T06:21:15.528Z,19.47
2018-12-11T06:23:44.185Z,13.73
2018-12-11T06:26:12.761Z,22.07
2018-12-11T06:28:41.352Z,18.57
2018-12-11T06:31:09.971Z,15.67
2018-12-11T06:33:38.655Z,9.57
2018-12-11T06:36:07.525Z,25.67
2018-12-11T06:38:36.460Z,14.00
2018-12-11T06:41:05.224Z,13.37
2018-12-11T06:43:33.913Z,20.37
2018-12-11T06:46:02.456Z,13.40
2018-12-11T06:48:31.054Z,14.20
2018-12-11T06:50:59.890Z,14.93
2018-12-11T06:53:29.059Z,20.05
2018-12-11T06:55:57.881Z,22.27
2018-12-11T06:58:26.752Z,15.23
2018-12-11T07:00:55.442Z,16.10
2018-12-11T07:03:24.030Z,18.70
2018-12-11T07:05:52.718Z,21.83
2018-12-11T07:08:21.382Z,18.82
2018-12-11T07:10:49.917Z,22.22
2018-12-11T07:13:18.659Z,17.43
2018-12-11T07:15:47.325Z,16.45
2018-12-11T07:18:15.880Z,16.23
2018-12-11T07:20:44.534Z,18.23
2018-12-11T07:23:13.131Z,13.03
2018-12-11T07:25:41.892Z,12.67
2018-12-11T07:28:10.527Z,21.00
2018-12-11T07:30:39.283Z,26.70
2018-12-11T07:33:08.215Z,17.47
2018-12-11T07:35:36.836Z,19.12
2018-12-11T07:38:05.369Z,15.70
2018-12-11T07:40:34.069Z,21.33
2018-12-11T07:43:02.733Z,16.33
2018-12-11T07:45:31.487Z,11.27
2018-12-11T07:48:00.117Z,18.07
2018-12-11T07:50:28.825Z,18.63
2018-12-11T07:52:57.637Z,14.18
2018-12-11T07:55:26.149Z,19.00
2018-12-11T07:57:54.904Z,17.10
2018-12-11T08:00:23.493Z,16.13
2018-12-11T08:02:52.190Z,25.23
2018-12-11T08:05:20.821Z,13.57
2018-12-11T08:07:49.437Z,19.27
2018-12-11T08:10:18.221Z,13.20
2018-12-11T08:12:46.996Z,13.87
2018-12-11T08:15:15.708Z,15.30
2018-12-11T08:17:44.419Z,16.80
2018-12-11T08:20:13.165Z,15.93
2018-12-11T08:22:41.855Z,15.10
2018-12-11T08:25:10.538Z,22.03
2018-12-11T08:27:39.369Z,16.97
2018-12-11T08:30:08.138Z,17.83
2018-12-11T08:32:36.904Z,20.10
2018-12-11T08:35:06.063Z,16.83
2018-12-11T08:37:34.825Z,16.67
2018-12-11T08:40:03.805Z,13.13
2018-12-11T08:42:32.494Z,13.23
2018-12-11T08:45:01.299Z,14.57
2018-12-11T08:47:29.929Z,16.70
2018-12-11T08:49:58.468Z,22.03
2018-12-11T08:52:27.142Z,20.40
2018-12-11T08:54:55.841Z,20.67
2018-12-11T08:57:24.431Z,16.77
2018-12-11T08:59:53.207Z,20.70
2018-12-11T09:02:21.851Z,20.10
2018-12-11T09:04:50.662Z,21.20
2018-12-11T09:07:19.388Z,18.20
2018-12-11T09:09:48.174Z,19.80
2018-12-11T09:12:16.728Z,25.50
2018-12-11T09:14:45.656Z,20.23
2018-12-11T09:17:14.188Z,22.40
2018-12-11T09:19:42.753Z,24.50
2018-12-11T09:22:11.491Z,21.20
2018-12-11T09:24:40.205Z,13.03
2018-12-11T09:27:08.792Z,23.50
2018-12-11T09:29:37.312Z,23.60
2018-12-11T09:32:05.952Z,23.20
2018-12-11T09:34:34.650Z,23.27
2018-12-11T09:37:03.269Z,21.17
2018-12-11T09:39:31.926Z,24.60
2018-12-11T09:42:06.881Z,25.90
2018-12-11T09:44:31.242Z,30.57
2018-12-11T09:46:59.901Z,29.20
2018-12-11T09:49:29.911Z,23.67
2018-12-11T09:51:58.792Z,32.37
2018-12-11T09:54:27.578Z,22.23
2018-12-11T09:56:56.144Z,18.33
2018-12-11T09:59:24.763Z,26.50
2018-12-11T10:01:53.653Z,25.67
2018-12-11T10:04:22.167Z,29.30
2018-12-11T10:06:50.833Z,31.70
2018-12-11T10:09:19.589Z,27.73
2018-12-11T10:11:48.393Z,26.10
2018-12-11T10:14:17.267Z,27.07
2018-12-11T10:16:45.958Z,29.03
2018-12-11T10:19:14.654Z,22.00
2018-12-11T10:21:43.342Z,29.77
2018-12-11T10:24:11.983Z,29.07
2018-12-11T10:26:40.714Z,39.23
2018-12-11T10:29:09.368Z,30.83
2018-12-11T10:31:37.950Z,24.03
2018-12-11T10:34:06.575Z,37.13
2018-12-11T10:36:35.328Z,26.30
2018-12-11T10:39:06.356Z,28.03
2018-12-11T10:41:35.275Z,28.17
2018-12-11T10:44:04.180Z,32.50
2018-12-11T10:46:33.893Z,24.83
2018-12-11T10:49:02.802Z,24.53
2018-12-11T10:51:31.429Z,27.20
2018-12-11T10:54:00.109Z,21.27
2018-12-11T10:56:28.737Z,19.37
2018-12-11T10:58:57.414Z,28.33
2018-12-11T11:01:27.853Z,34.13
2018-12-11T11:03:56.605Z,27.77
2018-12-11T11:06:25.373Z,26.07
2018-12-11T11:08:54.008Z,23.13
2018-12-11T11:11:22.696Z,25.23
2018-12-11T11:13:51.465Z,21.03
2018-12-11T11:16:20.004Z,32.27
2018-12-11T11:18:48.920Z,33.93
2018-12-11T11:21:17.639Z,21.00
2018-12-11T11:23:46.427Z,23.97
2018-12-11T11:26:15.324Z,27.07
2018-12-11T11:28:43.980Z,23.83
2018-12-11T11:31:12.657Z,26.73
2018-12-11T11:33:41.268Z,14.83
2018-12-11T11:36:09.932Z,19.53
2018-12-11T11:38:38.512Z,18.20
2018-12-11T11:41:07.042Z,23.37
2018-12-11T11:43:35.807Z,28.13
2018-12-11T11:46:04.405Z,11.57
2018-12-11T11:48:33.009Z,15.83
2018-12-11T11:51:01.671Z,12.93
2018-12-11T11:53:30.236Z,20.73
2018-12-11T11:55:58.908Z,15.40
2018-12-11T11:58:27.423Z,16.93
2018-12-11T12:00:55.948Z,27.73
2018-12-11T12:03:24.687Z,16.00
2018-12-11T12:05:53.421Z,20.07
2018-12-11T12:08:22.085Z,21.53
2018-12-11T12:10:50.753Z,16.93
2018-12-11T12:13:19.385Z,12.03
2018-12-11T12:15:47.926Z,18.63
2018-12-11T12:18:16.597Z,17.00
2018-12-11T12:20:45.164Z,21.60
2018-12-11T12:23:13.862Z,12.07
2018-12-11T12:25:42.477Z,21.43
2018-12-11T12:28:11.158Z,12.03
2018-12-11T12:30:40.249Z,12.90
2018-12-11T12:33:09.204Z,13.77
2018-12-11T12:35:37.745Z,11.63
2018-12-11T12:38:06.289Z,9.27
2018-12-11T12:40:35.093Z,16.77
2018-12-11T12:43:03.921Z,13.63
2018-12-11T12:45:32.764Z,18.83
2018-12-11T12:48:01.584Z,18.50
2018-12-11T12:50:30.217Z,16.33
2018-12-11T12:52:58.839Z,14.03
2018-12-11T12:55:27.756Z,30.23
2018-12-11T12:57:56.362Z,11.97
2018-12-11T13:00:24.917Z,26.77
2018-12-11T13:02:53.466Z,10.73
2018-12-11T13:05:22.112Z,10.53
2018-12-11T13:07:50.648Z,15.30
2018-12-11T13:10:19.425Z,16.10
2018-12-11T13:12:48.128Z,15.73
2018-12-11T13:15:16.871Z,16.70
2018-12-11T13:17:45.520Z,12.07
2018-12-11T13:20:14.292Z,18.83
2018-12-11T13:22:42.857Z,7.77
2018-12-11T13:25:11.437Z,5.57
2018-12-11T13:27:40.058Z,13.60
2018-12-11T13:30:08.936Z,13.33
2018-12-11T13:32:37.807Z,14.70
2018-12-11T13:35:06.759Z,12.43
2018-12-11T13:37:35.609Z,11.20
2018-12-11T13:40:05.588Z,13.47
2018-12-11T13:42:34.460Z,10.00
2018-12-11T13:45:03.297Z,9.63
2018-12-11T13:47:31.825Z,13.87
2018-12-11T13:50:00.607Z,21.10
2018-12-11T13:52:29.257Z,17.67
2018-12-11T13:54:57.953Z,12.57
2018-12-11T13:57:26.616Z,15.67
2018-12-11T13:59:55.610Z,10.90
2018-12-11T14:02:24.285Z,10.27
2018-12-11T14:04:52.983Z,9.03
2018-12-11T14:07:21.776Z,14.47
2018-12-11T14:09:50.366Z,12.13
2018-12-11T14:12:18.998Z,12.23
2018-12-11T14:14:47.893Z,14.73
2018-12-11T14:17:16.425Z,14.23
2018-12-11T14:19:45.075Z,11.53
2018-12-11T14:22:13.682Z,11.43
2018-12-11T14:24:42.318Z,13.10
2018-12-11T14:27:10.963Z,19.27
2018-12-11T14:29:39.660Z,15.20
2018-12-11T14:32:08.344Z,15.17
2018-12-11T14:34:36.882Z,9.33
2018-12-11T14:37:05.543Z,24.77
2018-12-11T14:39:34.303Z,15.33
2018-12-11T14:42:02.950Z,20.43
2018-12-11T14:44:31.868Z,21.97
2018-12-11T14:47:00.611Z,24.30
2018-12-11T14:49:29.162Z,25.27
2018-12-11T14:51:57.951Z,26.00
2018-12-11T14:54:26.594Z,26.67
2018-12-11T14:56:55.370Z,25.40
2018-12-11T14:59:24.077Z,20.20
2018-12-11T15:01:52.968Z,21.50
2018-12-11T15:04:21.620Z,21.03
2018-12-11T15:06:50.446Z,21.67
2018-12-11T15:09:24.762Z,20.53
2018-12-11T15:11:53.515Z,26.00
2018-12-11T15:14:22.390Z,21.97
2018-12-11T15:16:51.168Z,21.77
2018-12-11T15:19:20.125Z,15.23
2018-12-11T15:21:48.774Z,22.63
2018-12-11T15:24:17.495Z,21.83
2018-12-11T15:26:46.169Z,14.80
2018-12-11T15:29:15.073Z,22.63
2018-12-11T15:31:43.629Z,21.87
2018-12-11T15:34:12.243Z,25.27
2018-12-11T15:36:41.047Z,19.75
2018-12-11T15:39:09.777Z,23.53
2018-12-11T15:41:38.814Z,27.77
2018-12-11T15:44:07.598Z,20.87
2018-12-11T15:46:37.002Z,19.93
2018-12-11T15:49:05.901Z,27.73
2018-12-11T15:51:34.541Z,26.80
2018-12-11T15:54:03.340Z,28.53
2018-12-11T15:56:32.019Z,26.97
2018-12-11T15:59:00.686Z,25.80
2018-12-11T16:01:29.206Z,20.40
2018-12-11T16:03:57.905Z,29.73
2018-12-11T16:06:26.500Z,27.13
2018-12-11T16:08:55.184Z,31.27
2018-12-11T16:11:23.748Z,26.90
2018-12-11T16:13:52.435Z,27.07
2018-12-11T16:16:21.072Z,32.10
2018-12-11T16:18:49.717Z,27.87
2018-12-11T16:21:18.265Z,33.33
2018-12-11T16:23:46.856Z,32.37
2018-12-11T16:26:15.547Z,25.93
2018-12-11T16:28:44.363Z,25.60
2018-12-11T16:31:13.077Z,32.80
2018-12-11T16:33:42.112Z,32.40
2018-12-11T16:36:11.015Z,28.17
2018-12-11T16:38:39.866Z,32.33
2018-12-11T16:41:08.512Z,33.77
2018-12-11T16:43:37.033Z,32.97
2018-12-11T16:46:05.645Z,30.27
2018-12-11T16:48:34.560Z,44.03
2018-12-11T16:51:04.262Z,44.07
2018-12-11T16:53:33.169Z,46.25
2018-12-11T16:56:02.042Z,40.70
2018-12-11T16:58:30.763Z,39.03
2018-12-11T17:00:59.446Z,40.80
2018-12-11T17:03:28.321Z,37.97
2018-12-11T17:05:57.124Z,45.30
2018-12-11T17:08:25.897Z,37.63
2018-12-11T17:10:54.716Z,41.43
2018-12-11T17:13:23.389Z,46.30
2018-12-11T17:15:52.259Z,33.90
2018-12-11T17:18:20.921Z,41.10
2018-12-11T17:20:50.023Z,46.43
2018-12-11T17:23:18.905Z,45.67
2018-12-11T17:25:47.668Z,49.03
2018-12-11T17:28:16.345Z,44.90
2018-12-11T17:30:45.109Z,42.90
2018-12-11T17:33:13.687Z,46.90
2018-12-11T17:35:42.452Z,50.80
2018-12-11T17:38:11.084Z,39.53
2018-12-11T17:40:39.973Z,50.15
2018-12-11T17:43:08.695Z,46.23
2018-12-11T17:45:37.642Z,43.02
2018-12-11T17:48:07.537Z,37.83
2018-12-11T17:50:36.883Z,43.20
2018-12-11T17:53:05.585Z,42.40
2018-12-11T17:55:34.299Z,40.47
2018-12-11T17:58:03.093Z,44.63
2018-12-11T18:00:31.800Z,36.13
2018-12-11T18:03:00.465Z,41.57
2018-12-11T18:05:29.240Z,50.93
2018-12-11T18:07:58.032Z,40.60
2018-12-11T18:10:26.679Z,42.60
2018-12-11T18:12:55.184Z,31.63
2018-12-11T18:15:24.016Z,40.28
2018-12-11T18:17:52.544Z,40.70
2018-12-11T18:20:21.145Z,37.10
2018-12-11T18:22:49.744Z,45.50
2018-12-11T18:25:18.574Z,33.33
2018-12-11T18:27:47.381Z,35.77
2018-12-11T18:30:16.097Z,36.50
2018-12-11T18:32:44.833Z,38.93
2018-12-11T18:35:15.864Z,37.23
2018-12-11T18:37:44.798Z,42.97
2018-12-11T18:40:13.558Z,44.50
2018-12-11T18:42:42.119Z,29.83
2018-12-11T18:45:10.909Z,32.80
2018-12-11T18:47:39.579Z,42.30
2018-12-11T18:50:08.516Z,33.67
2018-12-11T18:52:37.127Z,34.27
2018-12-11T18:55:06.392Z,43.10
2018-12-11T18:57:35.030Z,39.27
2018-12-11T19:00:04.112Z,34.60
2018-12-11T19:02:33.001Z,38.13
2018-12-11T19:05:01.709Z,37.37
2018-12-11T19:07:30.233Z,44.67
2018-12-11T19:09:58.928Z,37.03
2018-12-11T19:12:27.662Z,35.00
2018-12-11T19:14:56.274Z,35.20
2018-12-11T19:17:24.957Z,34.80
2018-12-11T19:19:53.767Z,32.27
2018-12-11T19:22:22.625Z,40.93
2018-12-11T19:24:54.696Z,36.33
2018-12-11T19:27:23.242Z,38.47
2018-12-11T19:29:52.005Z,31.83
2018-12-11T19:32:21.070Z,31.93
2018-12-11T19:34:50.052Z,34.67
2018-12-11T19:37:18.822Z,33.73
2018-12-11T19:39:47.498Z,38.43
2018-12-11T19:42:16.398Z,39.37
2018-12-11T19:44:45.227Z,42.50
2018-12-11T19:47:14.056Z,49.07
2018-12-11T19:49:42.902Z,48.67
2018-12-11T19:52:11.896Z,44.80
2018-12-11T19:54:40.791Z,34.63
2018-12-11T19:57:09.835Z,38.60
2018-12-11T19:59:38.922Z,38.97
2018-12-11T20:02:08.106Z,48.73
2018-12-11T20:04:36.957Z,36.03
2018-12-11T20:07:05.901Z,37.67
2018-12-11T20:09:36.893Z,37.03
2018-12-11T20:12:05.702Z,33.50
2018-12-11T20:14:34.687Z,42.67
2018-12-11T20:17:04.067Z,40.10
2018-12-11T20:19:32.793Z,36.97
2018-12-11T20:22:01.688Z,36.10
2018-12-11T20:24:30.494Z,31.40
2018-12-11T20:26:59.353Z,36.27
2018-12-11T20:29:28.146Z,42.53
2018-12-11T20:31:57.214Z,35.57
2018-12-11T20:34:26.498Z,44.83
2018-12-11T20:36:55.431Z,40.43
2018-12-11T20:39:24.324Z,49.50
2018-12-11T20:41:53.618Z,41.80
2018-12-11T20:44:22.749Z,41.73
2018-12-11T20:46:51.953Z,40.63
2018-12-11T20:49:20.782Z,36.77
2018-12-11T20:51:49.780Z,33.80
2018-12-11T20:54:18.686Z,38.13
2018-12-11T20:56:47.359Z,31.20
2018-12-11T20:59:16.371Z,31.67
2018-12-11T21:01:45.273Z,32.83
2018-12-11T21:04:14.303Z,39.93
2018-12-11T21:06:43.213Z,40.90
2018-12-11T21:09:16.022Z,41.77
2018-12-11T21:11:44.870Z,45.40
2018-12-11T21:14:14.033Z,40.07
2018-12-11T21:16:43.152Z,38.60
2018-12-11T21:19:12.001Z,34.00
2018-12-11T21:21:41.176Z,45.53
2018-12-11T21:24:10.376Z,35.33
2018-12-11T21:26:39.232Z,41.13
2018-12-11T21:29:08.466Z,35.93
2018-12-11T21:31:37.517Z,35.23
2018-12-11T21:34:06.273Z,33.53
2018-12-11T21:36:35.278Z,35.10
2018-12-11T21:39:07.233Z,34.30
2018-12-11T21:41:36.217Z,35.23
2018-12-11T21:44:05.293Z,32.90
2018-12-11T21:46:34.368Z,37.63
2018-12-11T21:49:03.174Z,43.73
2018-12-11T21:51:31.873Z,36.60
2018-12-11T21:54:00.639Z,39.30
2018-12-11T21:56:29.315Z,35.50
2018-12-11T21:58:58.043Z,39.07
2018-12-11T22:01:26.916Z,36.20
2018-12-11T22:03:55.692Z,38.37
2018-12-11T22:06:24.808Z,40.87
2018-12-11T22:08:53.735Z,44.17
2018-12-11T22:11:22.553Z,44.57
2018-12-11T22:13:51.523Z,41.70
2018-12-11T22:16:20.282Z,44.10
2018-12-11T22:18:49.224Z,41.77
2018-12-11T22:21:18.001Z,45.43
2018-12-11T22:23:46.782Z,41.30
2018-12-11T22:26:15.743Z,44.47
2018-12-11T22:28:44.499Z,45.67
2018-12-11T22:31:13.332Z,42.97
2018-12-11T22:33:42.288Z,41.57
2018-12-11T22:36:10.973Z,48.37
2018-12-11T22:38:39.653Z,48.23
2018-12-11T22:41:08.273Z,52.77
2018-12-11T22:43:37.144Z,47.77
2018-12-11T22:46:06.146Z,52.73
2018-12-11T22:48:35.262Z,46.10
2018-12-11T22:51:04.493Z,47.17
2018-12-11T22:53:33.013Z,48.87
2018-12-11T22:56:01.901Z,41.43
2018-12-11T22:58:30.692Z,46.90
2018-12-11T23:01:00.512Z,43.23
2018-12-11T23:03:29.286Z,43.03
2018-12-11T23:05:58.372Z,50.27
2018-12-11T23:08:27.288Z,48.90
2018-12-11T23:10:56.171Z,46.13
2018-12-11T23:13:24.946Z,53.85
2018-12-11T23:15:53.638Z,50.07
2018-12-11T23:18:22.317Z,43.43
2018-12-11T23:20:51.017Z,44.20
2018-12-11T23:23:20.027Z,39.07
2018-12-11T23:25:48.704Z,42.63
2018-12-11T23:28:17.460Z,47.50
2018-12-11T23:30:46.402Z,45.50
2018-12-11T23:33:15.418Z,43.90
2018-12-11T23:35:44.296Z,41.13
2018-12-11T23:38:13.043Z,41.67
2018-12-11T23:40:41.602Z,48.20
2018-12-11T23:43:10.439Z,41.30
2018-12-11T23:45:39.093Z,47.60
2018-12-11T23:48:07.677Z,37.60
2018-12-11T23:50:36.257Z,45.53
2018-12-11T23:53:05.174Z,37.17
2018-12-11T23:55:33.954Z,37.47
2018-12-11T23:58:02.847Z,46.70
